createdAt,value
2022-08-26T00:04:18.440Z,64.17
2022-08-26T00:09:22.284Z,64.07
2022-08-26T00:14:30.831Z,63.77
2022-08-26T00:19:33.989Z,64.53
2022-08-26T00:24:36.611Z,64.84
2022-08-26T00:29:39.314Z,65.52
2022-08-26T00:34:42.031Z,65.78
2022-08-26T00:39:44.929Z,66.26
2022-08-26T00:44:48.445Z,66.29
2022-08-26T00:49:53.959Z,66.29
2022-08-26T00:55:20.156Z,67.21
2022-08-26T01:00:27.800Z,67.18
2022-08-26T01:05:30.858Z,68.06
2022-08-26T01:10:33.687Z,68.32
2022-08-26T01:15:42.902Z,68.71
2022-08-26T01:20:48.249Z,68.56
2022-08-26T01:25:59.766Z,69.07
2022-08-26T01:31:05.285Z,69.11
2022-08-26T01:36:08.726Z,69.02
2022-08-26T01:41:16.270Z,68.95
2022-08-26T01:46:24.415Z,68.93
2022-08-26T01:51:28.645Z,69.56
2022-08-26T01:56:33.331Z,69.71
2022-08-26T02:01:40.239Z,69.97
2022-08-26T02:06:44.561Z,70.08
2022-08-26T02:11:47.985Z,70.28
2022-08-26T02:16:53.256Z,70.24
2022-08-26T02:22:03.851Z,70.18
2022-08-26T02:27:06.758Z,70.45
2022-08-26T02:32:10.732Z,70.30
2022-08-26T02:37:14.630Z,68.81
2022-08-26T02:42:20.419Z,67.83
2022-08-26T02:47:24.875Z,67.96
2022-08-26T02:52:28.030Z,67.91
2022-08-26T02:57:31.199Z,68.14
2022-08-26T03:02:33.992Z,67.84
2022-08-26T03:07:36.951Z,67.71
2022-08-26T03:12:41.115Z,66.88
2022-08-26T03:17:44.902Z,65.45
2022-08-26T03:22:47.636Z,64.47
2022-08-26T03:27:52.903Z,63.82
2022-08-26T03:32:55.564Z,63.38
2022-08-26T03:37:58.862Z,63.33
2022-08-26T03:43:03.431Z,62.69
2022-08-26T03:48:06.349Z,61.56
2022-08-26T03:53:09.214Z,60.28
2022-08-26T03:58:16.080Z,58.61
2022-08-26T04:03:42.141Z,57.70
2022-08-26T04:08:45.413Z,57.64
2022-08-26T04:13:49.616Z,56.60
2022-08-26T04:18:52.700Z,55.10
2022-08-26T04:23:55.830Z,53.80
2022-08-26T04:29:01.389Z,52.12
2022-08-26T04:34:06.054Z,51.28
2022-08-26T04:39:12.176Z,50.79
2022-08-26T04:44:15.173Z,49.78
2022-08-26T04:49:18.249Z,48.84
2022-08-26T04:54:21.146Z,48.01
2022-08-26T04:59:24.581Z,47.69
2022-08-26T05:04:27.566Z,46.85
2022-08-26T05:09:32.129Z,45.70
2022-08-26T05:14:35.093Z,44.80
2022-08-26T05:19:38.589Z,44.02
2022-08-26T05:24:46.609Z,43.72
2022-08-26T05:29:54.449Z,42.90
2022-08-26T05:34:57.555Z,41.90
2022-08-26T05:40:04.023Z,41.38
2022-08-26T05:45:07.889Z,40.15
2022-08-26T05:50:10.635Z,39.55
2022-08-26T05:55:14.914Z,39.00
2022-08-26T06:00:19.062Z,39.42
2022-08-26T06:05:22.348Z,37.96
2022-08-26T06:10:33.201Z,36.92
2022-08-26T06:15:42.048Z,35.10
2022-08-26T06:20:57.396Z,33.83
2022-08-26T06:26:01.832Z,33.07
2022-08-26T06:31:06.230Z,32.59
2022-08-26T06:36:09.509Z,32.38
2022-08-26T06:41:12.441Z,30.92
2022-08-26T06:46:21.670Z,30.71
2022-08-26T06:51:27.488Z,30.60
2022-08-26T06:56:42.793Z,30.00
2022-08-26T07:01:45.664Z,29.46
2022-08-26T07:06:52.254Z,28.85
2022-08-26T07:11:56.580Z,27.90
2022-08-26T07:17:02.683Z,28.43
2022-08-26T07:22:06.656Z,28.17
2022-08-26T07:27:15.785Z,27.37
2022-08-26T07:32:22.956Z,27.13
2022-08-26T07:37:26.048Z,26.91
2022-08-26T07:42:28.837Z,26.92
2022-08-26T07:47:31.669Z,27.35
2022-08-26T07:52:35.439Z,27.15
2022-08-26T07:57:39.905Z,26.66
2022-08-26T08:02:45.133Z,25.95
2022-08-26T08:07:49.833Z,25.93
2022-08-26T08:12:58.068Z,25.45
2022-08-26T08:18:04.051Z,25.27
2022-08-26T08:23:07.024Z,24.96
2022-08-26T08:28:10.008Z,24.73
2022-08-26T08:33:13.616Z,24.92
2022-08-26T08:38:16.630Z,24.75
2022-08-26T08:43:44.107Z,24.51
2022-08-26T08:48:52.517Z,24.78
2022-08-26T08:53:58.932Z,24.30
2022-08-26T08:59:13.353Z,23.90
2022-08-26T09:05:00.123Z,23.31
2022-08-26T09:10:24.877Z,23.84
2022-08-26T09:15:44.870Z,23.56
2022-08-26T09:20:59.387Z,23.23
2022-08-26T09:26:29.357Z,22.20
2022-08-26T09:31:36.765Z,22.44
2022-08-26T09:36:46.579Z,23.14
2022-08-26T09:42:07.340Z,22.58
2022-08-26T09:47:10.749Z,22.99
2022-08-26T09:52:21.860Z,22.41
2022-08-26T09:57:30.411Z,23.07
2022-08-26T10:02:33.395Z,22.39
2022-08-26T10:07:49.495Z,22.82
2022-08-26T10:12:56.603Z,22.28
2022-08-26T10:18:25.224Z,21.43
2022-08-26T10:23:32.984Z,20.79
2022-08-26T10:28:46.262Z,21.12
2022-08-26T10:33:51.791Z,20.98
2022-08-26T10:38:55.391Z,19.98
2022-08-26T10:44:00.594Z,20.00
2022-08-26T10:49:14.641Z,20.09
2022-08-26T10:54:39.679Z,19.91
2022-08-26T11:00:38.484Z,19.75
2022-08-26T11:05:41.337Z,20.04
2022-08-26T11:11:00.879Z,19.53
2022-08-26T11:16:03.691Z,20.27
2022-08-26T11:22:06.648Z,20.46
2022-08-26T11:27:12.303Z,20.68
2022-08-26T11:32:44.189Z,20.85
2022-08-26T11:37:53.640Z,21.17
2022-08-26T11:43:05.791Z,20.97
2022-08-26T11:48:20.975Z,19.43
2022-08-26T11:53:26.163Z,19.73
2022-08-26T11:58:29.249Z,19.66
2022-08-26T12:03:39.922Z,19.39
2022-08-26T12:08:45.149Z,19.17
2022-08-26T12:14:00.689Z,19.38
2022-08-26T12:19:22.090Z,19.15
2022-08-26T12:24:28.778Z,19.24
2022-08-26T12:29:31.590Z,18.32
2022-08-26T12:34:34.644Z,18.50
2022-08-26T12:39:40.398Z,18.13
2022-08-26T12:44:53.312Z,18.65
2022-08-26T12:50:08.550Z,18.54
2022-08-26T12:55:47.845Z,19.20
2022-08-26T13:00:51.889Z,19.29
2022-08-26T13:06:08.357Z,19.69
2022-08-26T13:11:23.723Z,20.22
2022-08-26T13:16:27.474Z,19.88
2022-08-26T13:21:37.288Z,20.35
2022-08-26T13:26:41.365Z,21.05
2022-08-26T13:31:45.850Z,21.29
2022-08-26T13:36:51.173Z,21.76
2022-08-26T13:41:54.618Z,22.87
2022-08-26T13:46:57.243Z,22.94
2022-08-26T13:51:59.967Z,23.12
2022-08-26T13:57:02.669Z,23.71
2022-08-26T14:02:05.436Z,23.72
2022-08-26T14:07:08.503Z,24.20
2022-08-26T14:12:11.139Z,24.21
2022-08-26T14:17:19.838Z,24.56
2022-08-26T14:22:22.999Z,23.53
2022-08-26T14:27:25.888Z,23.35
2022-08-26T14:32:29.592Z,23.56
2022-08-26T14:37:33.265Z,23.25
2022-08-26T14:42:36.412Z,23.30
2022-08-26T14:47:39.766Z,22.83
2022-08-26T14:53:03.709Z,23.91
2022-08-26T14:58:06.719Z,24.11
2022-08-26T15:03:09.480Z,24.22
2022-08-26T15:08:13.005Z,23.99
2022-08-26T15:13:15.699Z,24.41
2022-08-26T15:18:18.327Z,24.33
2022-08-26T15:23:21.317Z,24.80
2022-08-26T15:28:24.047Z,25.32
2022-08-26T15:33:26.805Z,25.35
2022-08-26T15:38:34.147Z,25.26
2022-08-26T15:43:37.565Z,25.47
2022-08-26T15:48:40.659Z,26.19
2022-08-26T15:53:43.348Z,26.62
2022-08-26T15:58:46.175Z,27.47
2022-08-26T16:03:49.272Z,27.85
2022-08-26T16:08:51.920Z,28.48
2022-08-26T16:13:55.528Z,29.00
2022-08-26T16:18:58.840Z,29.64
2022-08-26T16:24:01.742Z,30.18
2022-08-26T16:29:08.832Z,30.75
2022-08-26T16:34:11.534Z,30.66
2022-08-26T16:39:14.320Z,31.17
2022-08-26T16:44:17.109Z,31.71
2022-08-26T16:49:19.989Z,32.48
2022-08-26T16:54:22.670Z,32.72
2022-08-26T16:59:25.468Z,33.75
2022-08-26T17:04:29.114Z,34.27
2022-08-26T17:09:32.036Z,35.40
2022-08-26T17:14:35.218Z,36.15
2022-08-26T17:19:41.732Z,36.80
2022-08-26T17:24:49.849Z,37.26
2022-08-26T17:29:52.530Z,38.06
2022-08-26T17:34:55.378Z,38.46
2022-08-26T17:39:58.590Z,39.28
2022-08-26T17:45:02.575Z,39.58
2022-08-26T17:50:10.408Z,40.05
2022-08-26T17:55:15.641Z,39.88
2022-08-26T18:00:21.681Z,40.34
2022-08-26T18:05:24.907Z,40.68
2022-08-26T18:10:27.929Z,41.13
2022-08-26T18:15:30.547Z,41.23
2022-08-26T18:20:33.484Z,41.20
2022-08-26T18:25:41.251Z,41.84
2022-08-26T18:30:44.776Z,42.50
2022-08-26T18:35:47.563Z,42.54
2022-08-26T18:40:50.335Z,42.80
2022-08-26T18:46:02.456Z,42.81
2022-08-26T18:51:06.948Z,43.66
2022-08-26T18:56:14.313Z,43.85
2022-08-26T19:01:23.250Z,44.71
2022-08-26T19:06:32.872Z,45.70
2022-08-26T19:11:37.290Z,46.20
2022-08-26T19:16:43.150Z,45.98
2022-08-26T19:21:47.054Z,46.33
2022-08-26T19:26:57.788Z,46.45
2022-08-26T19:32:02.017Z,47.02
2022-08-26T19:37:05.140Z,47.16
2022-08-26T19:42:07.783Z,47.18
2022-08-26T19:47:12.101Z,47.18
2022-08-26T19:52:15.205Z,47.88
2022-08-26T19:57:18.727Z,48.89
2022-08-26T20:02:21.571Z,48.85
2022-08-26T20:07:24.268Z,48.57
2022-08-26T20:12:27.609Z,48.72
2022-08-26T20:17:30.863Z,48.83
2022-08-26T20:22:33.853Z,48.65
2022-08-26T20:27:38.445Z,48.84
2022-08-26T20:32:42.260Z,49.08
2022-08-26T20:37:44.952Z,49.46
2022-08-26T20:42:48.036Z,50.39
2022-08-26T20:47:51.828Z,51.07
2022-08-26T20:52:55.250Z,52.20
2022-08-26T20:58:17.257Z,52.11
2022-08-26T21:03:20.230Z,52.01
2022-08-26T21:08:23.543Z,51.89
2022-08-26T21:13:27.309Z,52.57
2022-08-26T21:18:31.527Z,52.70
2022-08-26T21:23:36.297Z,53.07
2022-08-26T21:28:41.239Z,52.64
2022-08-26T21:33:43.969Z,52.57
2022-08-26T21:38:47.337Z,52.55
2022-08-26T21:43:53.829Z,52.08
2022-08-26T21:49:00.280Z,51.43
2022-08-26T21:54:10.505Z,50.86
2022-08-26T21:59:17.423Z,51.16
2022-08-26T22:04:20.621Z,52.07
2022-08-26T22:09:26.069Z,52.05
2022-08-26T22:14:30.879Z,51.23
2022-08-26T22:19:45.750Z,51.29
2022-08-26T22:24:49.321Z,52.89
2022-08-26T22:29:52.257Z,53.34
2022-08-26T22:34:54.941Z,53.51
2022-08-26T22:39:57.685Z,54.25
2022-08-26T22:45:02.270Z,54.35
2022-08-26T22:50:07.326Z,54.48
2022-08-26T22:55:11.170Z,55.05
2022-08-26T23:00:14.569Z,54.40
2022-08-26T23:05:17.867Z,53.79
2022-08-26T23:10:20.767Z,53.21
2022-08-26T23:15:23.599Z,52.99
2022-08-26T23:20:28.084Z,53.36
2022-08-26T23:25:32.569Z,53.57
2022-08-26T23:30:35.319Z,53.96
2022-08-26T23:35:38.800Z,54.38
2022-08-26T23:40:44.157Z,55.13
2022-08-26T23:45:47.032Z,55.70
2022-08-26T23:51:08.574Z,56.21
2022-08-26T23:56:16.104Z,56.51
